Terminal Aerodrome Forecast
Issued by NWS Tiyan, Guam

Home | Current Version | Previous Version | Text Only | Print | Product List | Glossary On
Versions: 1 2 3 4 5 6 7 8 9 10 11 12 13 14 15 16 17 18 19 20 21 22 23 24
000
FTPQ31 PGUM 201700 RRA
TAFPQ
TAF
PGUM 201742Z 2018/2124 12008KT P6SM VCSH SCT015 SCT040
     FM202300 11015KT P6SM VCSH SCT018 SCT040
     FM210800 10009KT P6SM FEW020=

USA.gov is the U.S. government's official web portal to all federal, state and local government web resources and services.